Latest Weather Observations for Frankston Beach

IDV60901

Issued at 8:41 pm EST Saturday 25 June 2022 (issued every 10 minutes, with the page automatically refreshed every 10 minutes)

About weather observations | Map of Melbourne area stations | Latest observations for Melbourne area | Other Formats
Station Details ID: 086371 Name: FRANKSTON BEACH Lat: -38.15 Lon: 145.12 Height: 6.0 m
Data from the previous 72 hours. | See also: Recent months at Frankston Beach
Date/Time
EST
Temp
°C
App
Temp
°C
Dew
Point
°C
Rel
Hum
%
Delta-T
°C
Wind Press
QNH
hPa
Press
MSL
hPa
Rain since
9am
mm
Dir  Spd
km/h
Gust
km/h
Spd
kts
Gust
kts
25/08:30pm - - - - - N 30 37 16 20 - - -
25/08:00pm - - - - - N 32 39 17 21 - - -
25/07:30pm - - - - - N 33 39 18 21 - - -
25/07:00pm - - - - - NNW 32 41 17 22 - - -
25/06:30pm - - - - - N 28 35 15 19 - - -
25/06:00pm - - - - - NNW 32 37 17 20 - - -
25/05:30pm - - - - - NNW 28 33 15 18 - - -
25/05:00pm - - - - - NNW 20 26 11 14 - - -
25/04:30pm - - - - - NNW 20 26 11 14 - - -
25/04:00pm - - - - - NNW 22 30 12 16 - - -
25/03:30pm - - - - - NNW 22 28 12 15 - - -
25/03:00pm - - - - - NNW 24 30 13 16 - - -
25/02:30pm - - - - - NNW 28 33 15 18 - - -
25/02:00pm - - - - - NW 30 35 16 19 - - -
25/01:30pm - - - - - NNW 24 32 13 17 - - -
25/01:00pm - - - - - NNW 22 26 12 14 - - -
25/12:30pm - - - - - NNW 26 30 14 16 - - -
25/12:00pm - - - - - NNW 26 33 14 18 - - -
25/11:30am - - - - - NNW 32 39 17 21 - - -
25/11:00am - - - - - NNW 32 37 17 20 - - -
25/10:30am - - - - - N 28 32 15 17 - - -
25/10:00am - - - - - N 30 35 16 19 - - -
25/09:30am - - - - - N 32 33 17 18 - - -
25/09:00am - - - - - N 24 28 13 15 - - -
25/08:30am - - - - - N 19 24 10 13 - - -
25/08:00am - - - - - N 20 26 11 14 - - -
25/07:30am - - - - - N 22 28 12 15 - - -
25/07:00am - - - - - N 24 30 13 16 - - -
25/06:30am - - - - - N 28 33 15 18 - - -
25/06:00am - - - - - N 28 33 15 18 - - -
25/05:30am - - - - - NNW 26 33 14 18 - - -
25/05:00am - - - - - NNW 28 32 15 17 - - -
25/04:30am - - - - - NNW 22 32 12 17 - - -
25/04:00am - - - - - NNW 24 30 13 16 - - -
25/03:30am - - - - - N 24 26 13 14 - - -
25/03:00am - - - - - N 26 30 14 16 - - -
25/02:30am - - - - - NNW 24 28 13 15 - - -
25/02:00am - - - - - N 15 17 8 9 - - -
25/01:30am - - - - - NNW 19 24 10 13 - - -
25/01:00am - - - - - NNW 20 24 11 13 - - -
25/12:30am - - - - - N 17 19 9 10 - - -
25/12:00am - - - - - NNW 20 24 11 13 - - -
 
Date/Time
EST
Temp
°C
App
Temp
°C
Dew
Point
°C
Rel
Hum
%
Delta-T
°C
Wind Press
QNH
hPa
Press
MSL
hPa
Rain since
9am
mm
Dir  Spd
km/h
Gust
km/h
Spd
kts
Gust
kts
24/11:30pm - - - - - NNW 19 24 10 13 - - -
24/11:00pm - - - - - NW 17 20 9 11 - - -
24/10:30pm - - - - - NW 17 20 9 11 - - -
24/10:00pm - - - - - NW 19 22 10 12 - - -
24/09:30pm - - - - - WNW 19 22 10 12 - - -
24/09:00pm - - - - - WNW 17 20 9 11 - - -
24/08:30pm - - - - - WNW 17 19 9 10 - - -
24/08:00pm - - - - - W 20 26 11 14 - - -
24/07:30pm - - - - - WNW 30 35 16 19 - - -
24/07:00pm - - - - - WNW 17 24 9 13 - - -
24/06:30pm - - - - - W 19 24 10 13 - - -
24/06:00pm - - - - - W 20 22 11 12 - - -
24/05:30pm - - - - - WNW 17 22 9 12 - - -
24/05:00pm - - - - - W 11 13 6 7 - - -
24/04:30pm - - - - - W 15 17 8 9 - - -
24/04:00pm - - - - - WNW 20 26 11 14 - - -
24/03:30pm - - - - - WNW 19 24 10 13 - - -
24/03:00pm - - - - - W 32 44 17 24 - - -
24/02:36pm - - - - - WNW 20 39 11 21 - - -
24/02:30pm - - - - - WNW 17 19 9 10 - - -
24/02:00pm - - - - - NW 15 19 8 10 - - -
24/01:30pm - - - - - WNW 15 17 8 9 - - -
24/01:00pm - - - - - W 22 30 12 16 - - -
24/12:30pm - - - - - NNW 17 24 9 13 - - -
24/12:00pm - - - - - NW 17 20 9 11 - - -
24/11:30am - - - - - NW 20 26 11 14 - - -
24/11:00am - - - - - WNW 26 30 14 16 - - -
24/10:30am - - - - - WNW 32 37 17 20 - - -
24/10:00am - - - - - WNW 32 37 17 20 - - -
24/09:30am - - - - - WNW 30 37 16 20 - - -
24/09:00am - - - - - NW 28 33 15 18 - - -
24/08:30am - - - - - NW 24 28 13 15 - - -
24/08:00am - - - - - NW 20 24 11 13 - - -
24/07:30am - - - - - NNW 24 30 13 16 - - -
24/07:00am - - - - - NW 19 24 10 13 - - -
24/06:30am - - - - - N 28 35 15 19 - - -
24/06:00am - - - - - N 30 35 16 19 - - -
24/05:30am - - - - - N 26 32 14 17 - - -
24/05:00am - - - - - N 28 35 15 19 - - -
24/04:30am - - - - - N 28 33 15 18 - - -
24/04:00am - - - - - NNW 30 41 16 22 - - -
24/03:30am - - - - - N 35 46 19 25 - - -
24/03:00am - - - - - N 37 50 20 27 - - -
24/02:30am - - - - - N 37 48 20 26 - - -
24/02:00am - - - - - N 37 50 20 27 - - -
24/01:30am - - - - - N 43 57 23 31 - - -
24/01:00am - - - - - N 44 57 24 31 - - -
24/12:30am - - - - - N 46 59 25 32 - - -
24/12:00am - - - - - N 46 59 25 32 - - -
 
Date/Time
EST
Temp
°C
App
Temp
°C
Dew
Point
°C
Rel
Hum
%
Delta-T
°C
Wind Press
QNH
hPa
Press
MSL
hPa
Rain since
9am
mm
Dir  Spd
km/h
Gust
km/h
Spd
kts
Gust
kts
23/11:36pm - - - - - N 43 61 23 33 - - -
23/11:30pm - - - - - N 43 56 23 30 - - -
23/11:00pm - - - - - N 43 59 23 32 - - -
23/10:30pm - - - - - N 39 50 21 27 - - -
23/10:00pm - - - - - N 39 50 21 27 - - -
23/09:30pm - - - - - N 35 44 19 24 - - -
23/09:00pm - - - - - N 39 50 21 27 - - -
23/08:30pm - - - - - N 39 50 21 27 - - -
23/08:00pm - - - - - N 41 54 22 29 - - -
23/07:30pm - - - - - N 35 44 19 24 - - -
23/07:00pm - - - - - N 33 39 18 21 - - -
23/06:30pm - - - - - N 30 37 16 20 - - -
23/06:00pm - - - - - N 30 35 16 19 - - -
23/05:30pm - - - - - N 28 37 15 20 - - -
23/05:00pm - - - - - N 32 39 17 21 - - -
23/04:30pm - - - - - N 28 35 15 19 - - -
23/04:00pm - - - - - N 30 35 16 19 - - -
23/03:30pm - - - - - N 32 39 17 21 - - -
23/03:00pm - - - - - N 30 35 16 19 - - -
23/02:30pm - - - - - N 28 32 15 17 - - -
23/02:00pm - - - - - N 28 33 15 18 - - -
23/01:30pm - - - - - N 24 30 13 16 - - -
23/01:00pm - - - - - NNW 19 24 10 13 - - -
23/12:30pm - - - - - NNW 26 33 14 18 - - -
23/12:00pm - - - - - NNW 17 28 9 15 - - -
23/11:30am - - - - - NW 13 17 7 9 - - -
23/11:00am - - - - - NNW 13 17 7 9 - - -
23/10:30am - - - - - N 17 19 9 10 - - -
23/10:00am - - - - - N 19 22 10 12 - - -
23/09:30am - - - - - N 26 32 14 17 - - -
23/09:00am - - - - - N 26 30 14 16 - - -
23/08:30am - - - - - NNW 30 35 16 19 - - -
23/08:00am - - - - - NNW 19 24 10 13 - - -
23/07:30am - - - - - N 22 26 12 14 - - -
23/07:00am - - - - - N 30 35 16 19 - - -
23/06:30am - - - - - N 26 30 14 16 - - -
23/06:00am - - - - - N 24 30 13 16 - - -
23/05:30am - - - - - N 22 26 12 14 - - -
23/05:00am - - - - - N 20 26 11 14 - - -
23/04:30am - - - - - N 19 22 10 12 - - -
23/04:00am - - - - - N 20 26 11 14 - - -
23/03:30am - - - - - N 17 20 9 11 - - -
23/03:00am - - - - - N 20 28 11 15 - - -
23/02:30am - - - - - N 26 32 14 17 - - -
23/02:00am - - - - - N 20 28 11 15 - - -
23/01:30am - - - - - N 20 26 11 14 - - -
23/01:00am - - - - - N 20 24 11 13 - - -
23/12:30am - - - - - N 20 26 11 14 - - -
23/12:00am - - - - - N 22 28 12 15 - - -
 
Date/Time
EST
Temp
°C
App
Temp
°C
Dew
Point
°C
Rel
Hum
%
Delta-T
°C
Wind Press
QNH
hPa
Press
MSL
hPa
Rain since
9am
mm
Dir  Spd
km/h
Gust
km/h
Spd
kts
Gust
kts
22/11:30pm - - - - - N 22 30 12 16 - - -
22/11:00pm - - - - - N 22 28 12 15 - - -
22/10:30pm - - - - - N 19 26 10 14 - - -
22/10:00pm - - - - - N 19 26 10 14 - - -
22/09:30pm - - - - - NNE 17 24 9 13 - - -
22/09:00pm - - - - - N 19 24 10 13 - - -

Latest Capital City Observations: Canberra | Sydney | Melbourne | Brisbane | Adelaide | Perth | Hobart | Darwin

Other formats

Comma delimited format used in spreadsheet applications
http://www.bom.gov.au/fwo/IDV60901/IDV60901.94871.axf

JavaScript Object Notation format (JSON) in row-major order
http://www.bom.gov.au/fwo/IDV60901/IDV60901.94871.json

Data quality

Most of these data are generated automatically and are frequently updated. Quality checks on data are not normally performed. It is possible for incorrect values to appear. Refer to information at About Latest Weather Observations and please check the disclaimer before using these data.